createdAt,value
2022-12-14T00:00:43.329Z,-7.74
2022-12-14T00:03:24.799Z,-7.68
2022-12-14T00:05:56.850Z,-7.62
2022-12-14T00:08:38.294Z,-7.57
2022-12-14T00:11:14.684Z,-7.50
2022-12-14T00:13:48.829Z,-7.48
2022-12-14T00:16:21.495Z,-7.49
2022-12-14T00:18:56.522Z,-7.50
2022-12-14T00:21:29.369Z,-7.57
2022-12-14T00:24:02.518Z,-7.74
2022-12-14T00:26:39.338Z,-8.01
2022-12-14T00:29:12.062Z,-8.15
2022-12-14T00:31:44.038Z,-8.17
2022-12-14T00:34:21.066Z,-8.25
2022-12-14T00:36:53.192Z,-8.20
2022-12-14T00:39:25.394Z,-8.10
2022-12-14T00:41:57.787Z,-8.02
2022-12-14T00:44:30.415Z,-7.90
2022-12-14T00:47:02.750Z,-7.73
2022-12-14T00:49:34.991Z,-7.58
2022-12-14T00:52:07.086Z,-7.52
2022-12-14T00:54:42.374Z,-7.53
2022-12-14T00:57:15.889Z,-7.68
2022-12-14T00:59:48.405Z,-7.85
2022-12-14T01:02:20.440Z,-8.04
2022-12-14T01:04:53.068Z,-8.20
2022-12-14T01:07:25.477Z,-8.34
2022-12-14T01:09:57.764Z,-8.41
2022-12-14T01:12:29.916Z,-8.43
2022-12-14T01:15:03.095Z,-8.37
2022-12-14T01:17:35.149Z,-8.56
2022-12-14T01:20:14.190Z,-8.72
2022-12-14T01:22:46.892Z,-8.62
2022-12-14T01:25:19.732Z,-8.61
2022-12-14T01:27:52.648Z,-8.80
2022-12-14T01:30:25.201Z,-8.96
2022-12-14T01:32:58.480Z,-8.93
2022-12-14T01:35:30.999Z,-8.97
2022-12-14T01:38:03.067Z,-9.07
2022-12-14T01:40:35.729Z,-9.02
2022-12-14T01:43:13.914Z,-8.89
2022-12-14T01:45:47.307Z,-8.72
2022-12-14T01:48:20.048Z,-8.60
2022-12-14T01:50:52.461Z,-8.57
2022-12-14T01:53:25.560Z,-8.56
2022-12-14T01:55:58.693Z,-8.65
2022-12-14T01:58:33.837Z,-8.91
2022-12-14T02:01:11.471Z,-9.21
2022-12-14T02:03:49.810Z,-9.39
2022-12-14T02:06:23.336Z,-9.50
2022-12-14T02:08:57.437Z,-9.49
2022-12-14T02:11:40.077Z,-9.43
2022-12-14T02:14:13.336Z,-9.51
2022-12-14T02:16:46.406Z,-9.45
2022-12-14T02:19:22.033Z,-9.33
2022-12-14T02:22:15.471Z,-9.46
2022-12-14T02:25:10.064Z,-9.71
2022-12-14T02:28:05.526Z,-9.66
2022-12-14T02:30:44.199Z,-9.61
2022-12-14T02:33:32.597Z,-9.81
2022-12-14T02:36:09.325Z,-9.81
2022-12-14T02:38:51.186Z,-9.91
2022-12-14T02:41:30.077Z,-9.98
2022-12-14T02:44:10.445Z,-9.92
2022-12-14T02:46:50.526Z,-9.95
2022-12-14T02:49:41.409Z,-10.01
2022-12-14T02:52:20.436Z,-9.94
2022-12-14T02:54:59.416Z,-9.86
2022-12-14T02:57:39.942Z,-9.86
2022-12-14T03:00:14.115Z,-9.76
2022-12-14T03:02:48.499Z,-9.71
2022-12-14T03:05:25.548Z,-9.69
2022-12-14T03:08:01.081Z,-9.62
2022-12-14T03:10:43.158Z,-9.71
2022-12-14T03:13:21.088Z,-9.89
2022-12-14T03:15:59.695Z,-10.00
2022-12-14T03:18:37.784Z,-10.09
2022-12-14T03:21:17.419Z,-10.05
2022-12-14T03:23:51.992Z,-9.93
2022-12-14T03:26:33.072Z,-9.91
2022-12-14T03:29:10.697Z,-9.97
2022-12-14T03:31:49.359Z,-10.03
2022-12-14T03:34:27.023Z,-10.13
2022-12-14T03:37:06.217Z,-10.18
2022-12-14T03:39:42.105Z,-10.27
2022-12-14T03:42:21.772Z,-10.35
2022-12-14T03:45:02.858Z,-10.29
2022-12-14T03:47:55.388Z,-10.06
2022-12-14T03:50:40.863Z,-10.09
2022-12-14T03:53:19.043Z,-10.06
2022-12-14T03:56:02.286Z,-9.97
2022-12-14T03:58:42.605Z,-9.90
2022-12-14T04:01:19.710Z,-9.81
2022-12-14T04:03:59.246Z,-9.84
2022-12-14T04:06:39.924Z,-10.02
2022-12-14T04:09:23.967Z,-10.18
2022-12-14T04:12:21.876Z,-10.13
2022-12-14T04:15:37.789Z,-9.91
2022-12-14T04:18:37.169Z,-9.74
2022-12-14T04:21:16.615Z,-9.81
2022-12-14T04:24:11.336Z,-9.91
2022-12-14T04:26:51.710Z,-9.87
2022-12-14T04:29:47.401Z,-9.80
2022-12-14T04:32:23.124Z,-9.64
2022-12-14T04:34:59.206Z,-9.58
2022-12-14T04:37:33.056Z,-9.68
2022-12-14T04:40:11.622Z,-9.70
2022-12-14T04:42:51.791Z,-9.61
2022-12-14T04:45:31.066Z,-9.57
2022-12-14T04:48:21.553Z,-9.58
2022-12-14T04:51:00.406Z,-9.56
2022-12-14T04:53:36.091Z,-9.56
2022-12-14T04:56:15.321Z,-9.65
2022-12-14T04:58:47.976Z,-9.73
2022-12-14T05:01:37.035Z,-10.05
2022-12-14T05:04:23.585Z,-10.33
2022-12-14T05:07:13.483Z,-10.45
2022-12-14T05:09:56.733Z,-10.40
2022-12-14T05:12:38.712Z,-10.34
2022-12-14T05:15:17.608Z,-10.48
2022-12-14T05:17:50.832Z,-10.62
2022-12-14T05:20:27.427Z,-10.61
2022-12-14T05:22:59.872Z,-10.57
2022-12-14T05:25:32.427Z,-10.39
2022-12-14T05:28:08.174Z,-10.26
2022-12-14T05:30:41.958Z,-10.15
2022-12-14T05:33:20.676Z,-10.09
2022-12-14T05:35:54.722Z,-10.17
2022-12-14T05:38:27.640Z,-10.27
2022-12-14T05:41:03.029Z,-10.22
2022-12-14T05:43:35.615Z,-10.19
2022-12-14T05:46:08.918Z,-10.15
2022-12-14T05:48:48.965Z,-10.21
2022-12-14T05:51:21.850Z,-10.22
2022-12-14T05:53:58.024Z,-10.21
2022-12-14T05:56:36.308Z,-10.22
2022-12-14T05:59:08.531Z,-10.25
2022-12-14T06:01:52.046Z,-10.29
2022-12-14T06:04:26.903Z,-10.28
2022-12-14T06:06:59.876Z,-10.31
2022-12-14T06:09:32.651Z,-10.33
2022-12-14T06:12:05.214Z,-10.33
2022-12-14T06:14:38.576Z,-10.34
2022-12-14T06:17:12.365Z,-10.35
2022-12-14T06:19:50.069Z,-10.31
2022-12-14T06:22:22.997Z,-10.28
2022-12-14T06:24:55.585Z,-10.23
2022-12-14T06:27:29.344Z,-10.18
2022-12-14T06:30:07.847Z,-10.13
2022-12-14T06:32:40.068Z,-10.09
2022-12-14T06:35:15.962Z,-10.04
2022-12-14T06:37:49.650Z,-10.02
2022-12-14T06:40:23.172Z,-10.01
2022-12-14T06:42:55.395Z,-10.00
2022-12-14T06:45:30.124Z,-9.98
2022-12-14T06:48:02.677Z,-9.96
2022-12-14T06:50:37.354Z,-9.96
2022-12-14T06:53:13.686Z,-9.97
2022-12-14T06:55:49.323Z,-9.93
2022-12-14T06:58:22.237Z,-9.89
2022-12-14T07:00:55.970Z,-9.80
2022-12-14T07:03:28.586Z,-9.65
2022-12-14T07:06:07.949Z,-9.59
2022-12-14T07:08:41.922Z,-9.52
2022-12-14T07:11:16.481Z,-9.44
2022-12-14T07:13:51.672Z,-9.38
2022-12-14T07:16:53.547Z,-9.37
2022-12-14T07:19:25.833Z,-9.33
2022-12-14T07:21:58.027Z,-9.35
2022-12-14T07:24:30.224Z,-9.32
2022-12-14T07:27:02.631Z,-9.26
2022-12-14T07:29:35.187Z,-9.19
2022-12-14T07:32:07.778Z,-9.18
2022-12-14T07:34:43.063Z,-9.21
2022-12-14T07:37:16.527Z,-9.19
2022-12-14T07:39:49.043Z,-9.14
2022-12-14T07:42:24.029Z,-9.14
2022-12-14T07:44:56.527Z,-9.17
2022-12-14T07:47:30.256Z,-9.18
2022-12-14T07:50:08.195Z,-9.16
2022-12-14T07:52:40.543Z,-9.14
2022-12-14T07:55:13.592Z,-9.18
2022-12-14T07:57:48.897Z,-9.11
2022-12-14T08:00:30.883Z,-9.04
2022-12-14T08:03:03.409Z,-8.97
2022-12-14T08:05:38.191Z,-8.94
2022-12-14T08:08:10.470Z,-8.93
2022-12-14T08:10:45.672Z,-8.94
2022-12-14T08:13:17.980Z,-8.86
2022-12-14T08:15:50.808Z,-8.78
2022-12-14T08:18:23.293Z,-8.72
2022-12-14T08:20:56.805Z,-8.67
2022-12-14T08:23:30.040Z,-8.58
2022-12-14T08:26:07.744Z,-8.51
2022-12-14T08:28:40.450Z,-8.48
2022-12-14T08:31:15.699Z,-8.42
2022-12-14T08:33:50.395Z,-8.32
2022-12-14T08:36:26.026Z,-8.25
2022-12-14T08:39:00.062Z,-8.18
2022-12-14T08:41:33.087Z,-8.10
2022-12-14T08:44:07.552Z,-8.01
2022-12-14T08:46:52.064Z,-7.93
2022-12-14T08:49:27.731Z,-7.87
2022-12-14T08:52:04.320Z,-7.81
2022-12-14T08:54:36.260Z,-7.70
2022-12-14T08:57:08.627Z,-7.64
2022-12-14T09:00:03.529Z,-7.60
2022-12-14T09:02:33.055Z,-7.54
2022-12-14T09:05:05.738Z,-7.48
2022-12-14T09:07:37.764Z,-7.42
2022-12-14T09:10:11.158Z,-7.34
2022-12-14T09:12:44.387Z,-7.23
2022-12-14T09:15:16.572Z,-7.12
2022-12-14T09:17:49.868Z,-7.01
2022-12-14T09:20:23.625Z,-6.95
2022-12-14T09:22:56.618Z,-6.92
2022-12-14T09:25:28.902Z,-6.86
2022-12-14T09:28:01.273Z,-6.81
2022-12-14T09:30:33.477Z,-6.82
2022-12-14T09:33:07.813Z,-6.80
2022-12-14T09:35:42.205Z,-6.74
2022-12-14T09:38:17.142Z,-6.68
2022-12-14T09:41:12.173Z,-6.61
2022-12-14T09:43:50.280Z,-6.56
2022-12-14T09:46:51.537Z,-6.48
2022-12-14T09:49:29.479Z,-6.35
2022-12-14T09:52:03.222Z,-5.85
2022-12-14T09:54:38.112Z,-4.88
2022-12-14T09:57:15.300Z,-4.07
2022-12-14T09:59:48.091Z,-3.40
2022-12-14T10:02:33.587Z,-2.78
2022-12-14T10:05:18.945Z,-2.11
2022-12-14T10:08:00.227Z,-1.52
2022-12-14T10:10:44.629Z,-1.13
2022-12-14T10:13:27.685Z,-0.74
2022-12-14T10:16:09.966Z,-0.32
2022-12-14T10:19:01.706Z,-0.03
2022-12-14T10:21:51.120Z,0.20
2022-12-14T10:24:28.030Z,0.55
2022-12-14T10:27:01.427Z,0.87
2022-12-14T10:29:42.369Z,0.88
2022-12-14T10:32:24.061Z,0.97
2022-12-14T10:34:57.341Z,1.11
2022-12-14T10:37:37.389Z,1.26
2022-12-14T10:40:29.150Z,1.39
2022-12-14T10:43:33.241Z,1.44
2022-12-14T10:46:15.316Z,1.49
2022-12-14T10:48:56.630Z,1.48
2022-12-14T10:51:37.335Z,1.39
2022-12-14T10:54:21.958Z,1.28
2022-12-14T10:56:54.434Z,1.31
2022-12-14T10:59:44.763Z,1.26
2022-12-14T11:02:26.172Z,0.96
2022-12-14T11:05:01.587Z,0.66
2022-12-14T11:07:45.961Z,0.42
2022-12-14T11:10:20.701Z,0.23
2022-12-14T11:13:07.856Z,-0.20
2022-12-14T11:15:46.636Z,-0.74
2022-12-14T11:18:32.355Z,-1.20
2022-12-14T11:21:11.057Z,-1.70
2022-12-14T11:23:46.382Z,-2.13
2022-12-14T11:26:25.766Z,-2.40
2022-12-14T11:29:00.623Z,-2.66
2022-12-14T11:31:53.989Z,-2.93
2022-12-14T11:34:30.476Z,-3.27
2022-12-14T11:37:22.408Z,-3.52
2022-12-14T11:39:57.544Z,-3.73
2022-12-14T11:42:30.458Z,-3.89
2022-12-14T11:45:28.976Z,-4.04
2022-12-14T11:48:23.250Z,-4.18
2022-12-14T11:51:11.672Z,-4.29
2022-12-14T11:53:47.811Z,-4.33
2022-12-14T11:56:21.820Z,-4.34
2022-12-14T11:58:55.631Z,-4.31
2022-12-14T12:01:29.829Z,-4.29
2022-12-14T12:04:04.584Z,-4.26
2022-12-14T12:06:37.397Z,-4.22
2022-12-14T12:09:24.163Z,-4.20
2022-12-14T12:11:56.456Z,-4.21
2022-12-14T12:14:39.359Z,-4.24
2022-12-14T12:17:28.421Z,-4.28
2022-12-14T12:19:59.349Z,-4.29
2022-12-14T12:22:33.824Z,-4.30
2022-12-14T12:25:25.329Z,-4.36
2022-12-14T12:28:13.545Z,-4.40
2022-12-14T12:30:50.818Z,-4.44
2022-12-14T12:33:36.305Z,-4.47
2022-12-14T12:36:10.220Z,-4.51
2022-12-14T12:38:53.036Z,-4.57
2022-12-14T12:41:32.940Z,-4.61
2022-12-14T12:44:18.549Z,-4.65
2022-12-14T12:50:02.185Z,-4.64
2022-12-14T12:52:42.178Z,-4.63
2022-12-14T12:55:19.560Z,-4.64
2022-12-14T12:57:54.853Z,-4.68
2022-12-14T13:00:29.557Z,-4.74
2022-12-14T13:03:11.493Z,-4.79
2022-12-14T13:05:49.576Z,-4.86
2022-12-14T13:08:33.629Z,-4.93
2022-12-14T13:11:26.273Z,-5.02
2022-12-14T13:14:04.005Z,-5.10
2022-12-14T13:16:49.648Z,-5.16
2022-12-14T13:19:50.211Z,-5.23
2022-12-14T13:22:32.493Z,-5.32
2022-12-14T13:25:12.735Z,-5.39
2022-12-14T13:28:14.066Z,-5.45
2022-12-14T13:31:19.039Z,-5.53
2022-12-14T13:34:09.189Z,-5.61
2022-12-14T13:37:20.395Z,-5.68
2022-12-14T13:40:18.353Z,-5.70
2022-12-14T13:43:00.047Z,-5.70
2022-12-14T13:45:39.846Z,-5.69
2022-12-14T13:48:23.422Z,-5.69
2022-12-14T13:51:05.685Z,-5.71
2022-12-14T13:53:50.434Z,-5.74
2022-12-14T13:56:32.607Z,-5.79
2022-12-14T13:59:24.691Z,-5.86
2022-12-14T14:01:59.838Z,-5.93
2022-12-14T14:04:35.814Z,-6.01
2022-12-14T14:07:51.731Z,-6.08
2022-12-14T14:10:40.286Z,-6.17
2022-12-14T14:13:26.017Z,-6.25
2022-12-14T14:16:28.001Z,-6.34
2022-12-14T14:19:04.149Z,-6.42
2022-12-14T14:22:14.052Z,-6.48
2022-12-14T14:24:56.337Z,-6.52
2022-12-14T14:27:31.086Z,-6.55
2022-12-14T14:30:04.409Z,-6.55
2022-12-14T14:32:41.207Z,-6.54
2022-12-14T14:35:26.988Z,-6.53
2022-12-14T14:38:03.880Z,-6.52
2022-12-14T14:41:15.216Z,-6.49
2022-12-14T14:43:57.780Z,-6.45
2022-12-14T14:46:50.062Z,-6.44
2022-12-14T14:49:27.060Z,-6.41
2022-12-14T14:52:19.444Z,-6.39
2022-12-14T14:55:21.768Z,-6.38
2022-12-14T14:58:05.064Z,-6.35
2022-12-14T15:00:49.858Z,-6.30
2022-12-14T15:03:24.351Z,-6.30
2022-12-14T15:05:57.724Z,-6.33
2022-12-14T15:08:38.651Z,-6.35
2022-12-14T15:11:19.055Z,-6.32
2022-12-14T15:13:55.213Z,-6.30
2022-12-14T15:16:42.343Z,-6.26
2022-12-14T15:19:49.948Z,-6.29
2022-12-14T15:22:24.763Z,-6.40
2022-12-14T15:25:00.122Z,-6.50
2022-12-14T15:27:34.893Z,-6.59
2022-12-14T15:30:25.804Z,-6.70
2022-12-14T15:33:02.067Z,-6.78
2022-12-14T15:35:45.545Z,-6.87
2022-12-14T15:38:27.368Z,-6.96
2022-12-14T15:41:16.915Z,-7.02
2022-12-14T15:44:00.009Z,-7.06
2022-12-14T15:46:42.148Z,-7.13
2022-12-14T15:49:25.841Z,-7.18
2022-12-14T15:52:03.784Z,-7.20
2022-12-14T15:54:39.508Z,-7.18
2022-12-14T15:57:20.009Z,-7.16
2022-12-14T15:59:57.050Z,-7.13
2022-12-14T16:02:34.849Z,-7.09
2022-12-14T16:05:08.003Z,-7.06
2022-12-14T16:07:44.939Z,-7.01
2022-12-14T16:10:24.185Z,-6.97
2022-12-14T16:13:01.164Z,-6.91
2022-12-14T16:15:34.013Z,-6.82
2022-12-14T16:18:17.165Z,-6.78
2022-12-14T16:21:00.393Z,-6.73
2022-12-14T16:23:45.516Z,-6.72
2022-12-14T16:26:25.988Z,-6.72
2022-12-14T16:29:20.013Z,-6.67
2022-12-14T16:32:03.047Z,-6.62
2022-12-14T16:34:35.203Z,-6.60
2022-12-14T16:40:03.786Z,-6.57
2022-12-14T16:42:48.760Z,-6.56
2022-12-14T16:46:09.731Z,-6.55
2022-12-14T16:48:50.179Z,-6.55
2022-12-14T16:54:36.110Z,-6.49
2022-12-14T16:57:19.763Z,-6.47
2022-12-14T17:00:10.310Z,-6.44
2022-12-14T17:02:47.257Z,-6.45
2022-12-14T17:05:25.677Z,-6.47
2022-12-14T17:08:00.077Z,-6.46
2022-12-14T17:10:53.122Z,-6.47
2022-12-14T17:13:28.400Z,-6.49
2022-12-14T17:16:07.743Z,-6.47
2022-12-14T17:18:50.407Z,-6.45
2022-12-14T17:21:29.637Z,-6.44
2022-12-14T17:24:04.764Z,-6.43
2022-12-14T17:26:40.559Z,-6.41
2022-12-14T17:29:25.203Z,-6.39
2022-12-14T17:32:01.632Z,-6.36
2022-12-14T17:34:34.604Z,-6.34
2022-12-14T17:37:21.570Z,-6.33
2022-12-14T17:39:58.087Z,-6.31
2022-12-14T17:42:42.711Z,-6.31
2022-12-14T17:45:27.822Z,-6.32
2022-12-14T17:48:14.362Z,-6.30
2022-12-14T17:50:53.818Z,-6.27
2022-12-14T17:53:34.643Z,-6.26
2022-12-14T17:56:09.932Z,-6.25
2022-12-14T17:58:52.567Z,-6.23
2022-12-14T18:04:50.915Z,-6.21
2022-12-14T18:07:24.613Z,-6.20
2022-12-14T18:09:58.058Z,-6.18
2022-12-14T18:12:33.780Z,-6.18
2022-12-14T18:15:18.830Z,-6.17
2022-12-14T18:18:05.126Z,-6.17
2022-12-14T18:20:53.899Z,-6.13
2022-12-14T18:23:26.965Z,-6.10
2022-12-14T18:26:11.883Z,-6.10
2022-12-14T18:28:48.506Z,-6.07
2022-12-14T18:34:25.346Z,-6.04
2022-12-14T18:37:08.946Z,-6.02
2022-12-14T18:39:49.602Z,-6.01
2022-12-14T18:42:22.952Z,-6.00
2022-12-14T18:44:55.958Z,-5.97
2022-12-14T18:47:41.832Z,-5.94
2022-12-14T18:50:20.100Z,-5.91
2022-12-14T18:52:55.339Z,-5.87
2022-12-14T18:55:30.515Z,-5.86
2022-12-14T18:58:21.498Z,-5.84
2022-12-14T19:00:58.366Z,-5.81
2022-12-14T19:03:35.861Z,-5.81
2022-12-14T19:06:42.949Z,-5.80
2022-12-14T19:09:10.722Z,-5.79
2022-12-14T19:11:51.928Z,-5.78
2022-12-14T19:14:25.325Z,-5.78
2022-12-14T19:16:57.866Z,-5.76
2022-12-14T19:19:44.612Z,-5.76
2022-12-14T19:22:25.438Z,-5.76
2022-12-14T19:25:00.791Z,-5.73
2022-12-14T19:28:15.612Z,-5.69
2022-12-14T19:30:39.868Z,-5.65
2022-12-14T19:33:19.455Z,-5.63
2022-12-14T19:35:58.441Z,-5.62
2022-12-14T19:38:36.113Z,-5.60
2022-12-14T19:41:13.731Z,-5.57
2022-12-14T19:43:49.366Z,-5.54
2022-12-14T19:46:24.064Z,-5.50
2022-12-14T19:49:00.445Z,-5.47
2022-12-14T19:51:36.585Z,-5.46
2022-12-14T19:54:12.285Z,-5.48
2022-12-14T19:56:49.256Z,-5.48
2022-12-14T19:59:23.958Z,-5.47
2022-12-14T20:01:59.697Z,-5.48
2022-12-14T20:04:40.556Z,-5.47
2022-12-14T20:07:14.659Z,-5.44
2022-12-14T20:09:48.850Z,-5.42
2022-12-14T20:12:23.559Z,-5.41
2022-12-14T20:14:56.018Z,-5.39
2022-12-14T20:17:28.584Z,-5.37
2022-12-14T20:20:00.744Z,-5.36
2022-12-14T20:22:33.392Z,-5.37
2022-12-14T20:25:06.153Z,-5.35
2022-12-14T20:27:40.987Z,-5.34
2022-12-14T20:30:15.124Z,-5.31
2022-12-14T20:32:49.764Z,-5.26
2022-12-14T20:35:22.082Z,-5.22
2022-12-14T20:38:03.094Z,-5.20
2022-12-14T20:40:39.822Z,-5.19
2022-12-14T20:43:12.399Z,-5.18
2022-12-14T20:45:50.529Z,-5.20
2022-12-14T20:48:24.243Z,-5.22
2022-12-14T20:51:02.272Z,-5.25
2022-12-14T20:53:34.526Z,-5.28
2022-12-14T20:56:08.981Z,-5.32
2022-12-14T20:58:42.094Z,-5.35
2022-12-14T21:01:17.952Z,-5.40
2022-12-14T21:03:51.812Z,-5.44
2022-12-14T21:06:31.240Z,-5.47
2022-12-14T21:09:05.483Z,-5.49
2022-12-14T21:11:59.382Z,-5.52
2022-12-14T21:14:33.841Z,-5.55
2022-12-14T21:17:06.963Z,-5.55
2022-12-14T21:19:39.755Z,-5.55
2022-12-14T21:22:14.743Z,-5.53
2022-12-14T21:25:06.493Z,-5.48
2022-12-14T21:27:40.787Z,-5.42
2022-12-14T21:30:14.700Z,-5.37
2022-12-14T21:32:49.233Z,-5.34
2022-12-14T21:35:21.771Z,-5.32
2022-12-14T21:37:54.147Z,-5.30
2022-12-14T21:40:43.802Z,-5.28
2022-12-14T21:43:16.663Z,-5.29
2022-12-14T21:45:53.650Z,-5.29
2022-12-14T21:48:27.546Z,-5.30
2022-12-14T21:51:00.436Z,-5.32
2022-12-14T21:53:38.608Z,-5.34
2022-12-14T21:56:25.438Z,-5.36
2022-12-14T21:58:57.468Z,-5.36
2022-12-14T22:01:30.108Z,-5.33
2022-12-14T22:04:03.339Z,-5.30
2022-12-14T22:06:36.885Z,-5.26
2022-12-14T22:09:09.425Z,-5.22
2022-12-14T22:11:41.421Z,-5.15
2022-12-14T22:14:14.657Z,-5.09
2022-12-14T22:16:47.714Z,-5.05
2022-12-14T22:19:21.832Z,-5.05
2022-12-14T22:21:54.968Z,-5.07
2022-12-14T22:24:29.135Z,-5.07
2022-12-14T22:27:02.219Z,-5.08
2022-12-14T22:29:36.947Z,-5.09
2022-12-14T22:32:12.369Z,-5.11
2022-12-14T22:34:46.251Z,-5.11
2022-12-14T22:37:19.422Z,-5.12
2022-12-14T22:39:51.746Z,-5.14
2022-12-14T22:42:24.143Z,-5.15
2022-12-14T22:44:56.096Z,-5.12
2022-12-14T22:47:29.308Z,-5.11
2022-12-14T22:50:03.372Z,-5.07
2022-12-14T22:52:38.912Z,-5.05
2022-12-14T22:55:13.223Z,-5.02
2022-12-14T22:57:48.754Z,-5.00
2022-12-14T23:00:20.932Z,-4.98
2022-12-14T23:02:53.641Z,-4.98
2022-12-14T23:05:25.772Z,-4.99
2022-12-14T23:07:58.265Z,-5.00
2022-12-14T23:10:48.407Z,-5.03
2022-12-14T23:13:40.544Z,-5.06
2022-12-14T23:16:30.221Z,-5.09
2022-12-14T23:19:20.308Z,-5.13
2022-12-14T23:22:10.035Z,-5.14
2022-12-14T23:25:00.753Z,-5.15
2022-12-14T23:27:50.571Z,-5.15
2022-12-14T23:30:40.790Z,-5.12
2022-12-14T23:33:31.398Z,-5.10
2022-12-14T23:36:23.834Z,-5.08
2022-12-14T23:39:13.382Z,-5.03
2022-12-14T23:42:03.422Z,-4.99
2022-12-14T23:44:53.362Z,-5.00
2022-12-14T23:47:43.148Z,-5.04
2022-12-14T23:50:32.914Z,-5.07
2022-12-14T23:53:26.392Z,-5.09
2022-12-14T23:56:24.564Z,-5.13
2022-12-14T23:59:14.415Z,-5.17
